createdAt,value
2022-08-22T00:02:42.243Z,100426.69
2022-08-22T00:02:46.133Z,100424.63
2022-08-22T00:02:48.244Z,100414.63
2022-08-22T00:02:54.059Z,100401.13
2022-08-22T00:03:09.592Z,100421.81
2022-08-22T00:06:18.866Z,100499.09
2022-08-22T00:09:31.007Z,100516.97
2022-08-22T00:12:33.302Z,100516.69
2022-08-22T00:15:42.077Z,100526.66
2022-08-22T00:18:42.282Z,100526.47
2022-08-22T00:21:38.055Z,100529.16
2022-08-22T00:24:51.061Z,100522.34
2022-08-22T00:27:51.734Z,100525.81
2022-08-22T00:30:57.686Z,100509.06
2022-08-22T00:33:58.455Z,100499.38
2022-08-22T00:37:12.239Z,100500.28
2022-08-22T00:40:21.026Z,100497.59
2022-08-22T00:43:32.756Z,100487.84
2022-08-22T00:46:37.401Z,100486.16
2022-08-22T00:49:39.560Z,100463.56
2022-08-22T00:52:34.634Z,100473.38
2022-08-22T00:55:46.483Z,100486.00
2022-08-22T00:58:47.615Z,100489.97
2022-08-22T01:01:42.545Z,100490.91
2022-08-22T01:04:46.924Z,100492.19
2022-08-22T01:07:55.108Z,100482.31
2022-08-22T01:10:53.907Z,100474.66
2022-08-22T01:14:02.197Z,100464.09
2022-08-22T01:17:02.202Z,100455.38
2022-08-22T01:20:25.708Z,100464.16
2022-08-22T01:23:40.555Z,100459.00
2022-08-22T01:26:47.937Z,100462.09
2022-08-22T01:29:41.355Z,100466.31
2022-08-22T01:33:24.228Z,100456.81
2022-08-22T01:36:38.238Z,100454.34
2022-08-22T01:39:47.740Z,100448.06
2022-08-22T01:42:55.655Z,100428.63
2022-08-22T01:45:55.941Z,100430.69
2022-08-22T01:48:53.855Z,100431.09
2022-08-22T01:51:55.778Z,100452.69
2022-08-22T01:54:55.470Z,100450.16
2022-08-22T01:58:01.791Z,100459.75
2022-08-22T02:01:26.659Z,100459.75
2022-08-22T02:04:38.593Z,100473.88
2022-08-22T02:07:50.795Z,100469.50
2022-08-22T02:11:07.428Z,100462.44
2022-08-22T02:14:19.983Z,100448.31
2022-08-22T02:17:13.159Z,100453.94
2022-08-22T02:20:20.417Z,100451.13
2022-08-22T02:23:19.946Z,100453.63
2022-08-22T02:26:18.283Z,100449.06
2022-08-22T02:29:21.696Z,100444.94
2022-08-22T02:32:22.713Z,100444.13
2022-08-22T02:35:20.246Z,100443.75
2022-08-22T02:38:14.765Z,100440.41
2022-08-22T02:41:23.135Z,100435.41
2022-08-22T02:44:50.030Z,100421.75
2022-08-22T02:48:08.499Z,100399.94
2022-08-22T02:51:13.005Z,100409.69
2022-08-22T02:54:33.322Z,100386.03
2022-08-22T02:57:49.184Z,100385.19
2022-08-22T03:00:54.655Z,100389.97
2022-08-22T03:03:48.559Z,100382.91
2022-08-22T03:06:49.277Z,100372.34
2022-08-22T03:09:58.385Z,100374.84
2022-08-22T03:12:57.580Z,100394.00
2022-08-22T03:15:56.926Z,100376.94
2022-08-22T03:19:07.947Z,100378.66
2022-08-22T03:22:03.865Z,100372.41
2022-08-22T03:25:32.595Z,100372.22
2022-08-22T03:28:59.585Z,100376.19
2022-08-22T03:32:10.831Z,100376.81
2022-08-22T03:35:05.115Z,100380.75
2022-08-22T03:38:10.492Z,100376.19
2022-08-22T03:41:14.525Z,100374.94
2022-08-22T03:44:37.865Z,100381.19
2022-08-22T03:48:08.366Z,100357.91
2022-08-22T03:51:25.815Z,100361.03
2022-08-22T03:54:37.925Z,100359.16
2022-08-22T03:57:45.665Z,100357.06
2022-08-22T04:00:50.542Z,100353.09
2022-08-22T04:04:27.776Z,100352.06
2022-08-22T04:07:32.217Z,100354.56
2022-08-22T04:10:35.344Z,100355.19
2022-08-22T04:13:52.776Z,100370.38
2022-08-22T04:17:13.198Z,100371.63
2022-08-22T04:20:56.367Z,100365.81
2022-08-22T04:23:54.276Z,100357.06
2022-08-22T04:27:05.640Z,100350.44
2022-08-22T04:30:20.121Z,100343.34
2022-08-22T04:33:15.765Z,100321.31
2022-08-22T04:36:13.572Z,100319.25
2022-08-22T04:39:07.674Z,100319.25
2022-08-22T04:42:37.776Z,100315.91
2022-08-22T04:45:45.765Z,100312.41
2022-08-22T04:48:44.491Z,100315.91
2022-08-22T04:51:44.178Z,100322.56
2022-08-22T04:54:43.045Z,100310.09
2022-08-22T04:57:54.937Z,100317.56
2022-08-22T05:00:53.635Z,100316.53
2022-08-22T05:03:52.254Z,100310.09
2022-08-22T05:06:49.452Z,100316.31
2022-08-22T05:09:41.125Z,100313.22
2022-08-22T05:12:34.602Z,100311.34
2022-08-22T05:15:38.065Z,100301.38
2022-08-22T05:18:32.305Z,100300.53
2022-08-22T05:21:27.151Z,100292.22
2022-08-22T05:24:27.999Z,100291.78
2022-08-22T05:27:25.526Z,100274.75
2022-08-22T05:30:23.110Z,100274.53
2022-08-22T05:33:41.223Z,100261.66
2022-08-22T05:36:40.876Z,100257.91
2022-08-22T05:39:31.449Z,100258.09
2022-08-22T05:42:33.380Z,100265.59
2022-08-22T05:45:25.933Z,100252.69
2022-08-22T05:48:21.939Z,100252.69
2022-08-22T05:51:23.512Z,100243.16
2022-08-22T05:54:33.531Z,100229.00
2022-08-22T05:57:29.193Z,100234.81
2022-08-22T06:00:24.271Z,100238.16
2022-08-22T06:03:42.209Z,100232.75
2022-08-22T06:06:36.944Z,100221.53
2022-08-22T06:09:35.863Z,100245.63
2022-08-22T06:12:44.519Z,100244.78
2022-08-22T06:16:01.809Z,100235.44
2022-08-22T06:18:53.812Z,100237.09
2022-08-22T06:21:44.369Z,100230.66
2022-08-22T06:24:38.019Z,100237.94
2022-08-22T06:27:31.069Z,100239.81
2022-08-22T06:30:21.604Z,100247.53
2022-08-22T06:33:15.309Z,100238.97
2022-08-22T06:36:33.856Z,100230.69
2022-08-22T06:39:31.512Z,100241.91
2022-08-22T06:42:27.344Z,100234.41
2022-08-22T06:45:30.972Z,100240.66
2022-08-22T06:48:25.610Z,100238.97
2022-08-22T06:51:16.473Z,100248.13
2022-08-22T06:54:12.001Z,100244.13
2022-08-22T06:57:02.100Z,100240.19
2022-08-22T06:59:52.308Z,100227.72
2022-08-22T07:02:59.653Z,100229.38
2022-08-22T07:05:49.431Z,100216.91
2022-08-22T07:08:39.431Z,100218.38
2022-08-22T07:11:39.061Z,100211.50
2022-08-22T07:14:44.619Z,100229.59
2022-08-22T07:17:37.836Z,100222.72
2022-08-22T07:20:36.462Z,100228.53
2022-08-22T07:23:39.324Z,100233.53
2022-08-22T07:26:33.825Z,100215.69
2022-08-22T07:30:05.061Z,100204.66
2022-08-22T07:33:20.986Z,100203.19
2022-08-22T07:36:28.380Z,100199.44
2022-08-22T07:39:40.634Z,100182.00
2022-08-22T07:42:43.956Z,100184.91
2022-08-22T07:45:42.188Z,100184.09
2022-08-22T07:48:53.491Z,100192.81
2022-08-22T07:51:49.274Z,100193.84
2022-08-22T07:55:05.795Z,100193.22
2022-08-22T07:58:01.186Z,100186.16
2022-08-22T08:00:55.226Z,100190.28
2022-08-22T08:03:53.831Z,100177.44
2022-08-22T08:06:43.718Z,100167.84
2022-08-22T08:09:36.681Z,100170.38
2022-08-22T08:12:33.644Z,100175.53
2022-08-22T08:15:25.491Z,100176.16
2022-08-22T08:18:22.189Z,100179.09
2022-08-22T08:21:25.813Z,100192.81
2022-08-22T08:24:26.239Z,100198.63
2022-08-22T08:27:37.619Z,100194.88
2022-08-22T08:30:38.330Z,100214.81
2022-08-22T08:33:30.988Z,100211.06
2022-08-22T08:36:51.805Z,100231.41
2022-08-22T08:39:54.619Z,100232.44
2022-08-22T08:43:26.356Z,100236.22
2022-08-22T08:46:15.879Z,100239.34
2022-08-22T08:49:25.449Z,100239.75
2022-08-22T08:52:30.855Z,100233.91
2022-08-22T08:55:43.679Z,100243.47
2022-08-22T08:58:45.203Z,100246.81
2022-08-22T09:01:56.842Z,100246.81
2022-08-22T09:05:26.815Z,100245.53
2022-08-22T09:08:27.602Z,100247.63
2022-08-22T09:11:48.752Z,100251.34
2022-08-22T09:14:47.188Z,100252.53
2022-08-22T09:18:18.259Z,100257.09
2022-08-22T09:21:30.563Z,100270.34
2022-08-22T09:24:41.330Z,100257.25
2022-08-22T09:27:44.340Z,100256.00
2022-08-22T09:30:59.571Z,100259.09
2022-08-22T09:34:14.634Z,100256.16
2022-08-22T09:37:28.666Z,100261.56
2022-08-22T09:40:33.110Z,100256.31
2022-08-22T09:43:46.576Z,100251.56
2022-08-22T09:46:57.573Z,100260.69
2022-08-22T09:50:13.632Z,100260.28
2022-08-22T09:53:42.975Z,100271.66
2022-08-22T09:56:57.736Z,100275.59
2022-08-22T09:59:59.013Z,100283.91
2022-08-22T10:03:19.894Z,100284.97
2022-08-22T10:06:21.964Z,100288.06
2022-08-22T10:09:31.285Z,100274.19
2022-08-22T10:12:49.039Z,100274.81
2022-08-22T10:15:42.377Z,100270.03
2022-08-22T10:18:52.537Z,100281.44
2022-08-22T10:22:05.769Z,100273.94
2022-08-22T10:25:14.013Z,100276.81
2022-08-22T10:28:21.357Z,100277.66
2022-08-22T10:31:31.852Z,100284.72
2022-08-22T10:34:25.741Z,100293.03
2022-08-22T10:37:33.987Z,100302.81
2022-08-22T10:40:36.005Z,100296.88
2022-08-22T10:43:46.243Z,100313.06
2022-08-22T10:46:54.367Z,100301.41
2022-08-22T10:50:08.570Z,100320.91
2022-08-22T10:53:28.922Z,100318.38
2022-08-22T10:56:24.214Z,100327.75
2022-08-22T10:59:26.949Z,100340.81
2022-08-22T11:02:33.159Z,100347.41
2022-08-22T11:05:37.115Z,100362.38
2022-08-22T11:08:52.073Z,100379.00
2022-08-22T11:12:14.984Z,100394.41
2022-08-22T11:15:14.306Z,100406.38
2022-08-22T11:18:23.558Z,100418.84
2022-08-22T11:21:30.466Z,100433.34
2022-08-22T11:24:35.633Z,100441.16
2022-08-22T11:28:07.308Z,100455.19
2022-08-22T11:31:21.126Z,100454.09
2022-08-22T11:34:48.965Z,100460.84
2022-08-22T11:37:43.333Z,100462.38
2022-08-22T11:40:48.914Z,100462.38
2022-08-22T11:43:56.822Z,100463.53
2022-08-22T11:46:52.199Z,100460.56
2022-08-22T11:50:07.207Z,100466.34
2022-08-22T11:53:41.486Z,100470.53
2022-08-22T11:56:41.620Z,100464.59
2022-08-22T11:59:39.990Z,100468.16
2022-08-22T12:02:41.388Z,100460.88
2022-08-22T12:05:49.004Z,100466.19
2022-08-22T12:08:38.810Z,100443.91
2022-08-22T12:11:45.812Z,100438.56
2022-08-22T12:15:02.248Z,100456.59
2022-08-22T12:18:29.783Z,100471.72
2022-08-22T12:21:38.615Z,100491.63
2022-08-22T12:24:43.654Z,100475.44
2022-08-22T12:28:08.064Z,100474.19
2022-08-22T12:31:07.805Z,100480.06
2022-08-22T12:34:24.390Z,100479.63
2022-08-22T12:37:23.364Z,100484.19
2022-08-22T12:40:19.362Z,100480.47
2022-08-22T12:43:33.727Z,100487.13
2022-08-22T12:46:50.722Z,100483.81
2022-08-22T12:49:44.959Z,100491.63
2022-08-22T12:53:04.771Z,100493.94
2022-08-22T12:56:06.258Z,100493.28
2022-08-22T12:59:13.790Z,100487.47
2022-08-22T13:02:21.632Z,100478.34
2022-08-22T13:05:19.716Z,100487.91
2022-08-22T13:08:32.988Z,100486.88
2022-08-22T13:11:24.379Z,100491.63
2022-08-22T13:14:19.561Z,100488.31
2022-08-22T13:17:25.097Z,100488.31
2022-08-22T13:20:26.697Z,100496.91
2022-08-22T13:23:31.488Z,100499.59
2022-08-22T13:26:32.817Z,100504.34
2022-08-22T13:29:46.981Z,100506.28
2022-08-22T13:32:47.874Z,100516.03
2022-08-22T13:35:55.453Z,100501.78
2022-08-22T13:39:19.591Z,100510.34
2022-08-22T13:42:14.264Z,100510.63
2022-08-22T13:45:11.425Z,100511.28
2022-08-22T13:48:15.540Z,100512.19
2022-08-22T13:51:26.170Z,100521.78
2022-08-22T13:54:28.752Z,100525.88
2022-08-22T13:57:18.578Z,100525.66
2022-08-22T14:00:57.365Z,100525.56
2022-08-22T14:04:17.595Z,100524.25
2022-08-22T14:07:23.910Z,100528.00
2022-08-22T14:10:27.996Z,100538.38
2022-08-22T14:13:18.945Z,100537.09
2022-08-22T14:16:15.116Z,100543.72
2022-08-22T14:19:12.352Z,100546.22
2022-08-22T14:22:14.374Z,100544.16
2022-08-22T14:25:11.341Z,100559.91
2022-08-22T14:28:06.525Z,100563.53
2022-08-22T14:31:13.725Z,100572.66
2022-08-22T14:34:13.429Z,100571.34
2022-08-22T14:37:14.410Z,100556.84
2022-08-22T14:40:13.832Z,100544.78
2022-08-22T14:43:22.163Z,100549.78
2022-08-22T14:46:26.587Z,100548.13
2022-08-22T14:49:30.235Z,100556.19
2022-08-22T14:52:29.704Z,100545.34
2022-08-22T14:55:30.584Z,100527.31
2022-08-22T14:58:26.527Z,100523.72
2022-08-22T15:01:23.683Z,100532.63
2022-08-22T15:04:19.291Z,100517.31
2022-08-22T15:07:12.911Z,100505.50
2022-08-22T15:10:11.825Z,100494.72
2022-08-22T15:13:05.356Z,100486.16
2022-08-22T15:16:03.485Z,100492.41
2022-08-22T15:18:55.895Z,100503.19
2022-08-22T15:21:47.295Z,100496.13
2022-08-22T15:25:04.646Z,100490.75
2022-08-22T15:28:20.044Z,100478.63
2022-08-22T15:31:21.049Z,100482.16
2022-08-22T15:34:18.104Z,100492.50
2022-08-22T15:37:23.005Z,100486.44
2022-08-22T15:40:32.178Z,100487.84
2022-08-22T15:43:34.888Z,100480.41
2022-08-22T15:46:33.321Z,100475.19
2022-08-22T15:49:23.102Z,100466.09
2022-08-22T15:52:23.700Z,100462.38
2022-08-22T15:55:30.395Z,100456.81
2022-08-22T15:58:25.728Z,100458.88
2022-08-22T16:01:20.684Z,100456.81
2022-08-22T16:04:18.144Z,100447.72
2022-08-22T16:07:42.503Z,100442.97
2022-08-22T16:10:35.523Z,100427.56
2022-08-22T16:13:31.924Z,100422.97
2022-08-22T16:16:27.802Z,100403.47
2022-08-22T16:19:21.813Z,100406.00
2022-08-22T16:22:12.478Z,100398.94
2022-08-22T16:25:04.117Z,100391.25
2022-08-22T16:27:55.717Z,100386.50
2022-08-22T16:30:45.182Z,100367.00
2022-08-22T16:33:41.318Z,100369.69
2022-08-22T16:37:00.475Z,100370.31
2022-08-22T16:40:06.930Z,100361.59
2022-08-22T16:43:17.503Z,100357.88
2022-08-22T16:46:33.309Z,100341.72
2022-08-22T16:49:34.978Z,100327.59
2022-08-22T16:52:27.697Z,100319.53
2022-08-22T16:55:32.325Z,100310.16
2022-08-22T16:58:56.577Z,100304.78
2022-08-22T17:01:48.908Z,100298.34
2022-08-22T17:05:25.405Z,100296.09
2022-08-22T17:08:31.901Z,100303.34
2022-08-22T17:11:30.849Z,100292.59
2022-08-22T17:14:55.085Z,100294.63
2022-08-22T17:17:53.978Z,100294.00
2022-08-22T17:21:05.054Z,100293.09
2022-08-22T17:24:02.805Z,100282.72
2022-08-22T17:27:00.581Z,100290.59
2022-08-22T17:30:01.160Z,100287.19
2022-08-22T17:33:13.684Z,100294.00
2022-08-22T17:36:26.610Z,100294.50
2022-08-22T17:39:38.567Z,100299.56
2022-08-22T17:42:53.397Z,100312.00
2022-08-22T17:45:55.497Z,100308.03
2022-08-22T17:48:54.242Z,100315.84
2022-08-22T17:52:33.540Z,100311.56
2022-08-22T17:56:04.852Z,100305.72
2022-08-22T17:59:31.601Z,100315.84
2022-08-22T18:02:25.403Z,100311.47
2022-08-22T18:06:00.895Z,100305.72
2022-08-22T18:12:19.243Z,100302.75
2022-08-22T18:15:31.601Z,100286.94
2022-08-22T18:18:31.228Z,100284.22
2022-08-22T18:21:35.295Z,100282.63
2022-08-22T18:24:33.145Z,100282.63
2022-08-22T18:27:39.076Z,100274.75
2022-08-22T18:30:33.025Z,100278.22
2022-08-22T18:33:51.992Z,100270.19
2022-08-22T18:37:09.277Z,100271.81
2022-08-22T18:40:13.530Z,100265.41
2022-08-22T18:43:19.635Z,100258.72
2022-08-22T18:46:29.050Z,100265.19
2022-08-22T18:49:21.605Z,100251.09
2022-08-22T18:52:15.857Z,100254.16
2022-08-22T18:55:23.622Z,100246.19
2022-08-22T18:58:35.838Z,100247.38
2022-08-22T19:01:39.359Z,100245.81
2022-08-22T19:04:45.274Z,100240.66
2022-08-22T19:07:52.905Z,100234.03
2022-08-22T19:10:59.943Z,100226.59
2022-08-22T19:14:29.297Z,100222.44
2022-08-22T19:17:31.295Z,100224.50
2022-08-22T19:20:52.703Z,100230.44
2022-08-22T19:23:47.649Z,100216.53
2022-08-22T19:26:46.144Z,100216.44
2022-08-22T19:29:38.083Z,100225.16
2022-08-22T19:32:48.709Z,100225.31
2022-08-22T19:35:38.621Z,100233.13
2022-08-22T19:38:52.714Z,100235.44
2022-08-22T19:41:47.639Z,100243.25
2022-08-22T19:44:43.523Z,100235.16
2022-08-22T19:47:41.933Z,100236.41
2022-08-22T19:50:36.574Z,100246.31
2022-08-22T19:53:40.852Z,100242.22
2022-08-22T19:57:00.254Z,100237.59
2022-08-22T20:00:15.191Z,100230.16
2022-08-22T20:03:10.113Z,100235.00
2022-08-22T20:06:22.026Z,100248.47
2022-08-22T20:09:56.463Z,100232.53
2022-08-22T20:13:05.566Z,100248.47
2022-08-22T20:16:25.448Z,100242.44
2022-08-22T20:19:17.827Z,100240.75
2022-08-22T20:22:09.567Z,100242.78
2022-08-22T20:25:00.737Z,100246.41
2022-08-22T20:27:53.291Z,100243.06
2022-08-22T20:30:45.375Z,100256.72
2022-08-22T20:33:39.569Z,100251.59
2022-08-22T20:36:29.712Z,100245.97
2022-08-22T20:39:29.156Z,100252.00
2022-08-22T20:42:20.119Z,100245.56
2022-08-22T20:45:12.110Z,100235.22
2022-08-22T20:48:02.546Z,100238.53
2022-08-22T20:50:53.520Z,100247.63
2022-08-22T20:53:43.936Z,100244.31
2022-08-22T20:56:56.228Z,100258.56
2022-08-22T20:59:57.254Z,100256.31
2022-08-22T21:03:03.904Z,100254.84
2022-08-22T21:05:53.151Z,100262.47
2022-08-22T21:08:43.871Z,100257.47
2022-08-22T21:11:41.836Z,100260.06
2022-08-22T21:14:36.040Z,100261.19
2022-08-22T21:17:34.363Z,100257.84
2022-08-22T21:20:25.245Z,100261.91
2022-08-22T21:23:16.461Z,100261.91
2022-08-22T21:26:21.002Z,100266.38
2022-08-22T21:29:16.593Z,100281.75
2022-08-22T21:32:32.542Z,100295.50
2022-08-22T21:35:27.381Z,100293.53
2022-08-22T21:38:19.309Z,100290.38
2022-08-22T21:41:08.749Z,100293.53
2022-08-22T21:43:58.284Z,100307.34
2022-08-22T21:46:47.754Z,100306.03
2022-08-22T21:50:16.967Z,100323.47
2022-08-22T21:53:15.573Z,100300.47
2022-08-22T21:56:17.552Z,100294.91
2022-08-22T21:59:51.091Z,100296.97
2022-08-22T22:02:43.869Z,100297.69
2022-08-22T22:05:33.677Z,100312.16
2022-08-22T22:08:23.466Z,100297.69
2022-08-22T22:11:19.746Z,100293.06
2022-08-22T22:14:09.350Z,100302.41
2022-08-22T22:16:59.407Z,100304.44
2022-08-22T22:19:49.313Z,100316.69
2022-08-22T22:22:46.573Z,100308.44
2022-08-22T22:25:40.759Z,100315.84
2022-08-22T22:28:41.594Z,100322.19
2022-08-22T22:31:31.401Z,100333.28
2022-08-22T22:34:22.389Z,100326.25
2022-08-22T22:37:13.288Z,100339.69
2022-08-22T22:40:08.228Z,100317.16
2022-08-22T22:42:57.678Z,100329.31
2022-08-22T22:45:47.850Z,100327.91
2022-08-22T22:48:37.253Z,100327.63
2022-08-22T22:51:27.117Z,100330.31
2022-08-22T22:54:17.286Z,100330.09
2022-08-22T22:57:06.372Z,100337.81
2022-08-22T23:00:02.439Z,100336.78
2022-08-22T23:02:52.244Z,100347.56
2022-08-22T23:05:41.884Z,100349.56
2022-08-22T23:08:31.762Z,100359.59
2022-08-22T23:11:25.279Z,100358.66
2022-08-22T23:14:15.284Z,100359.97
2022-08-22T23:17:05.576Z,100348.59
2022-08-22T23:19:55.718Z,100355.16
2022-08-22T23:22:46.964Z,100368.56
2022-08-22T23:25:40.704Z,100362.19
2022-08-22T23:28:33.090Z,100361.00
2022-08-22T23:31:33.380Z,100371.09
2022-08-22T23:34:29.237Z,100361.00
2022-08-22T23:37:21.737Z,100377.13
2022-08-22T23:40:11.871Z,100365.34
2022-08-22T23:43:02.008Z,100386.41
2022-08-22T23:45:54.523Z,100382.06
2022-08-22T23:48:44.898Z,100391.88
2022-08-22T23:51:35.006Z,100386.34
2022-08-22T23:54:28.951Z,100387.53
2022-08-22T23:57:19.363Z,100390.34
